Time;durP1;ratioP1;P1;durP2;ratioP2;P2;SDS_P1;SDS_P2;PMS_P1;PMS_P2;Temp;Humidity;BMP_temperature;BMP_pressure;BME280_temperature;BME280_humidity;BME280_pressure;Samples;Min_cycle;Max_cycle;Signal;HPM_P1;HPM_P2
2022/09/04 00:00:10;;;;;;;5.07;2.78;;;17.80;87.30;;;;;;5034697;28;20045;-69
2022/09/04 00:03:14;;;;;;;4.75;2.40;;;17.80;87.30;;;;;;5034588;28;20480;-68
2022/09/04 00:05:52;;;;;;;9.38;3.10;;;17.80;87.30;;;;;;5028794;28;20136;-68
2022/09/04 00:08:44;;;;;;;6.00;2.60;;;17.80;87.40;;;;;;5034760;28;20037;-68
2022/09/04 00:11:43;;;;;;;6.35;2.35;;;17.80;87.20;;;;;;5024934;28;20079;-69
2022/09/04 00:14:48;;;;;;;3.50;2.42;;;17.70;87.00;;;;;;5025021;28;20077;-68
2022/09/04 00:17:34;;;;;;;5.95;2.53;;;17.70;86.80;;;;;;5025438;28;20056;-68
2022/09/04 00:20:41;;;;;;;4.60;2.10;;;17.70;86.60;;;;;;5033995;28;20038;-68
2022/09/04 00:23:33;;;;;;;5.03;3.15;;;17.70;86.90;;;;;;5024526;28;20096;-69
2022/09/04 00:25:59;;;;;;;10.65;2.90;;;17.60;87.30;;;;;;5029859;28;20058;-68
2022/09/04 00:28:48;;;;;;;4.05;3.22;;;17.60;86.80;;;;;;5034155;28;20049;-68
2022/09/04 00:31:13;;;;;;;6.13;2.45;;;17.60;87.10;;;;;;5034204;28;20041;-67
2022/09/04 00:33:53;;;;;;;6.38;2.75;;;17.60;86.70;;;;;;5034634;28;20056;-70
2022/09/04 00:36:23;;;;;;;6.57;2.50;;;17.60;87.00;;;;;;5034062;28;20037;-68
2022/09/04 00:39:13;;;;;;;5.68;2.53;;;17.60;86.80;;;;;;5034020;28;20038;-68
2022/09/04 00:41:58;;;;;;;5.70;2.60;;;17.60;87.00;;;;;;5033937;28;20112;-67
2022/09/04 00:44:37;;;;;;;5.13;2.50;;;17.50;87.10;;;;;;5034170;28;20049;-68
2022/09/04 00:47:28;;;;;;;5.70;2.40;;;17.50;87.30;;;;;;5034130;28;20045;-68
2022/09/04 00:50:06;;;;;;;5.05;2.70;;;17.50;87.50;;;;;;5034241;28;20072;-69
2022/09/04 00:53:08;;;;;;;4.65;2.80;;;17.40;88.00;;;;;;5034245;28;20053;-68
2022/09/04 00:56:02;;;;;;;4.57;2.58;;;17.40;87.80;;;;;;5037623;28;20042;-70
2022/09/04 00:58:46;;;;;;;2.92;2.42;;;17.40;88.20;;;;;;5037756;28;20413;-67
2022/09/04 01:01:26;;;;;;;4.80;2.47;;;17.30;88.30;;;;;;5037698;28;20071;-68
2022/09/04 01:04:02;;;;;;;4.45;2.60;;;17.30;88.20;;;;;;5037940;28;20057;-69
2022/09/04 01:06:36;;;;;;;6.30;2.60;;;17.30;88.50;;;;;;5037835;28;20281;-68
2022/09/04 01:09:21;;;;;;;4.25;2.53;;;17.30;88.70;;;;;;5020115;28;20053;-67
2022/09/04 01:12:07;;;;;;;4.90;2.88;;;17.30;88.50;;;;;;5037126;28;20049;-68
2022/09/04 01:15:00;;;;;;;3.53;2.50;;;17.20;89.10;;;;;;5037366;28;20060;-71
2022/09/04 01:17:34;;;;;;;5.85;2.58;;;17.20;88.50;;;;;;5012932;28;20464;-71
2022/09/04 01:20:15;;;;;;;3.65;2.45;;;17.20;89.20;;;;;;5037447;28;20126;-67
2022/09/04 01:23:03;;;;;;;3.55;2.90;;;17.20;88.80;;;;;;5043136;28;20132;-69
2022/09/04 01:25:55;;;;;;;5.15;2.92;;;17.10;89.10;;;;;;5054671;28;20052;-68
2022/09/04 01:28:44;;;;;;;3.92;2.65;;;17.20;89.10;;;;;;5053618;28;20136;-68
2022/09/04 01:31:35;;;;;;;4.95;3.03;;;17.10;89.20;;;;;;5054459;28;20045;-69
2022/09/04 01:34:37;;;;;;;5.03;2.75;;;17.10;89.10;;;;;;5055758;28;20067;-69
2022/09/04 01:37:27;;;;;;;6.18;2.97;;;17.10;90.00;;;;;;5055559;28;20068;-68
2022/09/04 01:40:18;;;;;;;6.88;2.80;;;17.10;89.20;;;;;;5048159;28;20045;-68
2022/09/04 01:42:53;;;;;;;4.93;3.00;;;17.10;89.30;;;;;;5046750;28;20047;-68
2022/09/04 01:45:48;;;;;;;10.77;3.30;;;17.10;89.40;;;;;;5054038;28;20045;-68
2022/09/04 01:48:19;;;;;;;6.38;2.80;;;17.00;89.50;;;;;;5054024;28;20052;-68
2022/09/04 01:50:49;;;;;;;7.03;3.30;;;17.00;89.50;;;;;;5036277;28;20045;-69
2022/09/04 01:53:24;;;;;;;5.15;3.15;;;17.00;89.90;;;;;;5055621;28;20041;-67
2022/09/04 01:56:05;;;;;;;;;;;17.00;90.00;;;;;;5054303;28;20106;-68
2022/09/04 01:58:54;;;;;;;8.63;3.55;;;17.00;90.10;;;;;;5053903;28;19920;-67
2022/09/04 02:01:42;;;;;;;5.95;3.50;;;16.90;90.00;;;;;;5053976;28;20098;-69
2022/09/04 02:04:38;;;;;;;4.40;3.60;;;16.90;90.10;;;;;;5053844;28;20045;-68
2022/09/04 02:07:07;;;;;;;5.22;3.67;;;16.90;90.20;;;;;;5048181;28;20044;-70
2022/09/04 02:09:41;;;;;;;8.13;3.72;;;16.90;90.10;;;;;;5055107;28;20040;-68
2022/09/04 02:12:29;;;;;;;5.18;3.40;;;16.90;90.10;;;;;;5053519;28;20041;-68
2022/09/04 02:15:05;;;;;;;6.47;3.60;;;16.90;90.30;;;;;;5053630;28;20055;-69
2022/09/04 02:17:46;;;;;;;6.78;3.50;;;16.90;90.20;;;;;;5054816;28;20044;-69
2022/09/04 02:20:24;;;;;;;6.70;3.67;;;16.80;90.30;;;;;;5046826;28;20045;-67
2022/09/04 02:23:10;;;;;;;9.40;4.00;;;16.80;90.70;;;;;;5053366;28;20094;-68
2022/09/04 02:26:07;;;;;;;4.38;3.42;;;16.80;90.60;;;;;;5053359;28;20489;-68
2022/09/04 02:29:09;;;;;;;4.75;3.78;;;16.80;90.50;;;;;;5031980;28;20387;-67
2022/09/04 02:31:50;;;;;;;7.05;3.72;;;16.80;90.90;;;;;;5053345;28;20377;-68
2022/09/04 02:34:42;;;;;;;8.20;3.75;;;16.70;90.70;;;;;;5053059;28;20466;-68
2022/09/04 02:37:36;;;;;;;4.03;3.40;;;16.70;90.80;;;;;;5052526;28;20140;-69
2022/09/04 02:40:31;;;;;;;5.13;3.33;;;16.70;91.10;;;;;;5047895;28;20125;-67
2022/09/04 02:43:38;;;;;;;5.22;3.70;;;16.70;91.00;;;;;;5054864;28;20184;-68
2022/09/04 02:46:09;;;;;;;6.40;3.22;;;16.70;91.30;;;;;;5053991;28;20045;-68
2022/09/04 02:49:12;;;;;;;5.60;3.42;;;16.60;91.10;;;;;;5036639;28;20106;-68
2022/09/04 02:52:13;;;;;;;7.45;3.58;;;16.60;91.40;;;;;;5036631;28;20041;-68
2022/09/04 02:55:16;;;;;;;6.63;3.40;;;16.60;91.30;;;;;;5044534;28;20055;-67
2022/09/04 02:57:53;;;;;;;7.35;3.30;;;16.60;91.40;;;;;;4969599;28;20459;-68
2022/09/04 03:00:21;;;;;;;5.53;3.22;;;16.50;91.40;;;;;;5051960;28;20048;-67
2022/09/04 03:03:11;;;;;;;4.72;3.55;;;16.50;91.40;;;;;;5035028;28;20048;-69
2022/09/04 03:06:07;;;;;;;5.18;2.88;;;16.50;91.80;;;;;;5035487;28;20406;-69
2022/09/04 03:08:51;;;;;;;8.13;3.47;;;16.50;92.00;;;;;;5046829;28;20367;-68
2022/09/04 03:11:42;;;;;;;5.43;3.17;;;16.40;91.80;;;;;;5045411;28;20071;-67
2022/09/04 03:14:16;;;;;;;6.15;3.22;;;16.40;91.90;;;;;;5044357;28;20183;-67
2022/09/04 03:16:55;;;;;;;5.45;3.08;;;16.40;91.90;;;;;;5051902;28;20124;-68
2022/09/04 03:19:41;;;;;;;3.13;2.75;;;16.40;92.40;;;;;;5052685;28;20119;-68
2022/09/04 03:22:17;;;;;;;7.43;3.20;;;16.30;92.40;;;;;;5053020;28;20055;-67
2022/09/04 03:25:20;;;;;;;5.05;3.42;;;16.30;92.50;;;;;;5044660;28;20182;-69
2022/09/04 03:27:45;;;;;;;7.70;3.88;;;16.30;92.60;;;;;;5053809;28;20045;-68
2022/09/04 03:30:13;;;;;;;4.38;3.03;;;16.20;92.70;;;;;;5052226;28;20129;-68
2022/09/04 03:33:04;;;;;;;4.95;2.88;;;16.20;92.90;;;;;;5052650;28;20049;-67
2022/09/04 03:35:49;;;;;;;6.85;3.25;;;16.20;93.40;;;;;;5046177;28;20060;-67
2022/09/04 03:38:24;;;;;;;6.55;3.20;;;16.10;93.30;;;;;;5044536;28;20413;-67
2022/09/04 03:41:28;;;;;;;4.43;3.20;;;16.10;93.40;;;;;;5052000;28;20053;-67
2022/09/04 03:44:21;;;;;;;6.03;3.40;;;16.10;93.80;;;;;;5020133;28;20132;-67
2022/09/04 03:47:02;;;;;;;5.93;3.15;;;16.00;93.80;;;;;;5037288;28;20471;-67
2022/09/04 03:49:50;;;;;;;6.00;3.47;;;16.00;93.90;;;;;;5037507;28;20511;-68
2022/09/04 03:52:38;;;;;;;11.65;3.55;;;16.00;94.00;;;;;;5037346;28;20064;-67
2022/09/04 03:55:25;;;;;;;7.35;3.70;;;16.00;94.40;;;;;;5036228;28;20452;-67
2022/09/04 03:58:14;;;;;;;8.15;3.67;;;16.00;94.70;;;;;;5045056;28;20048;-68
2022/09/04 04:01:14;;;;;;;9.45;3.10;;;16.00;94.50;;;;;;5043158;28;20060;-68
2022/09/04 04:03:54;;;;;;;5.32;3.30;;;16.00;94.70;;;;;;5026049;28;20041;-69
2022/09/04 04:06:39;;;;;;;4.78;3.13;;;16.00;94.40;;;;;;5051710;28;20406;-67
2022/09/04 04:09:37;;;;;;;6.25;3.45;;;15.90;94.90;;;;;;5051664;28;20044;-68
2022/09/04 04:12:41;;;;;;;5.38;3.55;;;15.90;94.80;;;;;;5038409;28;20041;-68
2022/09/04 04:15:23;;;;;;;5.70;3.72;;;15.90;95.10;;;;;;5051459;28;20032;-67
2022/09/04 04:18:04;;;;;;;7.47;3.55;;;15.90;95.20;;;;;;5051434;28;20061;-67
2022/09/04 04:20:49;;;;;;;4.57;3.55;;;15.90;95.20;;;;;;5052908;28;20135;-67
2022/09/04 04:23:39;;;;;;;4.78;3.60;;;15.90;95.30;;;;;;5043715;28;20080;-69
2022/09/04 04:26:46;;;;;;;4.70;3.83;;;15.90;95.50;;;;;;5046596;28;20060;-68
2022/09/04 04:29:42;;;;;;;4.72;3.63;;;15.90;95.50;;;;;;4961004;28;20062;-66
2022/09/04 04:32:24;;;;;;;5.47;3.35;;;15.80;95.90;;;;;;5046658;28;20041;-66
2022/09/04 04:35:11;;;;;;;5.03;3.33;;;15.80;95.80;;;;;;5055361;28;20055;-68
2022/09/04 04:37:45;;;;;;;5.45;3.97;;;15.80;95.70;;;;;;5055517;28;20079;-68
2022/09/04 04:40:20;;;;;;;4.00;3.38;;;15.80;95.60;;;;;;5055641;28;20044;-67
2022/09/04 04:42:58;;;;;;;7.18;3.78;;;15.80;95.70;;;;;;5047428;28;20451;-69
2022/09/04 04:45:53;;;;;;;6.25;3.83;;;15.80;96.10;;;;;;5055268;28;20336;-68
2022/09/04 04:48:37;;;;;;;6.43;3.47;;;15.80;96.00;;;;;;5054948;28;20336;-68
2022/09/04 04:51:25;;;;;;;3.88;3.38;;;15.80;95.90;;;;;;5055079;28;20122;-67
2022/09/04 04:54:01;;;;;;;4.93;3.60;;;15.80;96.40;;;;;;5054803;28;20088;-67
2022/09/04 04:56:52;;;;;;;6.80;4.05;;;15.80;96.20;;;;;;5056797;28;20106;-70
2022/09/04 04:59:46;;;;;;;7.03;3.30;;;15.80;96.50;;;;;;5047714;28;20049;-66
2022/09/04 05:02:40;;;;;;;10.98;3.60;;;15.80;96.70;;;;;;5039240;28;20500;-67
2022/09/04 05:05:42;;;;;;;6.72;4.05;;;15.80;96.70;;;;;;5049741;28;20046;-68
2022/09/04 05:08:27;;;;;;;7.57;3.47;;;15.80;96.90;;;;;;5046277;28;20041;-68
2022/09/04 05:11:15;;;;;;;5.75;3.42;;;15.80;97.10;;;;;;5054834;28;20129;-67
2022/09/04 05:13:56;;;;;;;5.85;3.83;;;15.80;96.80;;;;;;5054819;28;20132;-67
2022/09/04 05:17:00;;;;;;;8.68;3.92;;;15.80;97.00;;;;;;5054703;28;20460;-67
2022/09/04 05:19:42;;;;;;;5.97;4.28;;;15.80;97.30;;;;;;5054252;28;20511;-68
2022/09/04 05:22:12;;;;;;;7.70;4.18;;;15.80;97.00;;;;;;5055324;28;20065;-67
2022/09/04 05:24:49;;;;;;;8.80;4.47;;;15.80;97.00;;;;;;5046041;28;20052;-68
2022/09/04 05:27:49;;;;;;;9.27;4.88;;;15.80;97.30;;;;;;5041465;28;20049;-67
2022/09/04 05:30:21;;;;;;;5.93;4.63;;;15.80;97.50;;;;;;5039860;28;20051;-68
2022/09/04 05:32:58;;;;;;;7.65;4.95;;;15.90;97.60;;;;;;5039840;28;20041;-67
2022/09/04 05:35:48;;;;;;;8.82;4.40;;;15.90;97.50;;;;;;5038641;28;20479;-67
2022/09/04 05:38:29;;;;;;;8.07;4.50;;;15.90;97.40;;;;;;5046069;28;20120;-67
2022/09/04 05:41:04;;;;;;;7.57;4.32;;;15.90;97.60;;;;;;5022771;28;20440;-68
2022/09/04 05:43:50;;;;;;;5.80;4.75;;;15.90;97.60;;;;;;5022622;28;20098;-68
2022/09/04 05:46:23;;;;;;;8.05;5.20;;;15.90;97.80;;;;;;5022362;28;20059;-67
2022/09/04 05:49:30;;;;;;;5.32;4.38;;;15.90;97.60;;;;;;5038114;28;20049;-67
2022/09/04 05:52:05;;;;;;;7.57;5.10;;;16.00;97.90;;;;;;5039445;28;20053;-68
2022/09/04 05:54:43;;;;;;;;;;;16.00;97.90;;;;;;5049474;28;20060;-69
2022/09/04 05:57:19;;;;;;;9.65;4.47;;;16.00;98.50;;;;;;5039561;28;19987;-68
2022/09/04 06:00:05;;;;;;;7.45;4.55;;;16.00;98.10;;;;;;5039437;28;20077;-68
2022/09/04 06:02:55;;;;;;;5.22;4.20;;;16.00;98.10;;;;;;5038286;28;20045;-67
2022/09/04 06:05:24;;;;;;;6.75;4.68;;;16.00;98.10;;;;;;5046666;28;20074;-68
2022/09/04 06:08:20;;;;;;;6.95;4.25;;;16.10;98.30;;;;;;5053415;28;20041;-68
2022/09/04 06:11:22;;;;;;;5.70;4.18;;;16.10;98.80;;;;;;5053707;28;20041;-67
2022/09/04 06:14:10;;;;;;;5.95;4.20;;;16.10;98.40;;;;;;5035861;28;20049;-67
2022/09/04 06:16:43;;;;;;;8.88;4.53;;;16.10;98.40;;;;;;5053479;28;20111;-69
2022/09/04 06:19:21;;;;;;;6.13;4.40;;;16.10;98.50;;;;;;5054280;28;20144;-67
2022/09/04 06:22:09;;;;;;;6.57;4.25;;;16.10;98.50;;;;;;5046070;28;20049;-67
2022/09/04 06:24:53;;;;;;;12.63;4.47;;;16.20;98.60;;;;;;5048160;28;20049;-68
2022/09/04 06:27:39;;;;;;;6.78;4.53;;;16.20;98.30;;;;;;5038915;28;20069;-69
2022/09/04 06:30:10;;;;;;;7.90;4.20;;;16.30;98.70;;;;;;5038881;28;20049;-67
2022/09/04 06:32:54;;;;;;;9.45;4.55;;;16.30;98.70;;;;;;5037969;28;20041;-66
2022/09/04 06:35:45;;;;;;;7.10;4.72;;;16.30;98.90;;;;;;5045937;28;20045;-68
2022/09/04 06:38:39;;;;;;;5.57;4.70;;;16.40;98.90;;;;;;5054888;28;20064;-69
2022/09/04 06:41:26;;;;;;;7.97;4.85;;;16.40;98.80;;;;;;5047917;28;20060;-68
2022/09/04 06:44:13;;;;;;;7.97;4.85;;;16.40;98.80;;;;;;5038457;28;20111;-68
2022/09/04 06:46:44;;;;;;;8.23;4.55;;;16.60;98.80;;;;;;5038808;28;20382;-67
2022/09/04 06:49:22;;;;;;;7.82;4.78;;;16.60;98.70;;;;;;5038105;28;20041;-69
2022/09/04 06:52:11;;;;;;;7.72;4.18;;;16.70;98.60;;;;;;5044409;28;20098;-67
2022/09/04 06:55:15;;;;;;;5.85;4.22;;;16.80;98.70;;;;;;5047861;28;20030;-67
2022/09/04 06:58:00;;;;;;;9.13;4.40;;;16.80;98.50;;;;;;4999079;28;20188;-69
2022/09/04 07:00:31;;;;;;;6.50;4.22;;;16.90;98.70;;;;;;5038602;28;20071;-68
2022/09/04 07:03:15;;;;;;;9.57;4.53;;;17.00;98.50;;;;;;5038352;28;20045;-68
2022/09/04 07:05:48;;;;;;;8.10;4.40;;;17.10;98.60;;;;;;5020418;28;20063;-68
2022/09/04 07:08:44;;;;;;;5.68;4.65;;;17.20;98.50;;;;;;5044490;28;20045;-68
2022/09/04 07:11:15;;;;;;;5.22;4.22;;;17.20;98.70;;;;;;5036728;28;20136;-67
2022/09/04 07:13:44;;;;;;;5.28;4.57;;;17.30;98.60;;;;;;5052505;28;20041;-67
2022/09/04 07:16:37;;;;;;;6.22;4.38;;;17.30;98.80;;;;;;5053255;28;20045;-68
2022/09/04 07:19:33;;;;;;;5.18;4.07;;;17.50;98.80;;;;;;5046705;28;20056;-68
2022/09/04 07:22:40;;;;;;;7.72;4.40;;;17.50;99.10;;;;;;5046395;28;20115;-66
2022/09/04 07:25:25;;;;;;;7.18;4.30;;;17.60;98.70;;;;;;4991625;28;20081;-69
2022/09/04 07:27:54;;;;;;;;;;;17.70;98.80;;;;;;4967408;28;20520;-67
2022/09/04 07:30:24;;;;;;;8.18;4.32;;;17.70;98.80;;;;;;5020237;28;20327;-68
2022/09/04 07:32:57;;;;;;;7.13;4.22;;;17.70;98.40;;;;;;5037654;28;20448;-67
2022/09/04 07:35:32;;;;;;;5.65;4.30;;;17.80;98.70;;;;;;5036390;28;20099;-68
2022/09/04 07:38:12;;;;;;;10.88;4.63;;;17.80;98.50;;;;;;5037991;28;20100;-68
2022/09/04 07:41:15;;;;;;;12.15;4.88;;;17.90;98.50;;;;;;5037441;28;20077;-68
2022/09/04 07:44:03;;;;;;;6.97;4.00;;;18.00;98.90;;;;;;5037340;28;20052;-68
2022/09/04 07:46:40;;;;;;;5.03;3.90;;;18.00;98.50;;;;;;5038784;28;20060;-68
2022/09/04 07:49:22;;;;;;;6.45;4.57;;;18.00;98.30;;;;;;5053973;28;20056;-67
2022/09/04 07:51:58;;;;;;;5.22;4.28;;;18.10;98.20;;;;;;5044346;28;20087;-67
2022/09/04 07:55:05;;;;;;;5.60;3.88;;;18.20;98.20;;;;;;5051479;28;20412;-68
2022/09/04 07:58:06;;;;;;;5.95;3.90;;;18.30;98.20;;;;;;5046864;28;20041;-67
2022/09/04 08:01:09;;;;;;;10.65;4.43;;;18.30;98.00;;;;;;5046531;28;20421;-68
2022/09/04 08:03:56;;;;;;;5.22;3.92;;;18.40;98.40;;;;;;5046677;28;20034;-70
2022/09/04 08:06:47;;;;;;;8.57;4.20;;;18.50;98.10;;;;;;5037227;28;20116;-67
2022/09/04 08:09:26;;;;;;;7.97;4.10;;;18.60;98.20;;;;;;5037048;28;20045;-69
2022/09/04 08:12:13;;;;;;;8.85;4.25;;;18.70;98.00;;;;;;5037098;28;20063;-67
2022/09/04 08:14:53;;;;;;;6.45;4.30;;;18.70;98.00;;;;;;5036176;28;20056;-67
2022/09/04 08:17:49;;;;;;;7.32;4.10;;;18.80;98.20;;;;;;5044031;28;20136;-69
2022/09/04 08:20:40;;;;;;;7.22;4.13;;;18.90;98.40;;;;;;5053272;28;20053;-68
2022/09/04 08:23:36;;;;;;;6.88;4.07;;;18.90;98.20;;;;;;5045202;28;20066;-68
2022/09/04 08:26:38;;;;;;;6.22;3.80;;;19.00;98.40;;;;;;5033380;28;20057;-68
2022/09/04 08:29:25;;;;;;;6.68;4.30;;;19.10;98.30;;;;;;5033923;28;20045;-67
2022/09/04 08:32:22;;;;;;;7.45;4.10;;;19.20;98.60;;;;;;5034222;28;20049;-67
2022/09/04 08:35:14;;;;;;;4.90;4.15;;;19.30;98.40;;;;;;5034113;28;20045;-68
2022/09/04 08:37:49;;;;;;;4.90;3.97;;;19.40;98.40;;;;;;5034157;28;20049;-67
2022/09/04 08:40:41;;;;;;;6.22;4.32;;;19.50;98.40;;;;;;5034218;28;20049;-68
2022/09/04 08:43:35;;;;;;;7.22;3.90;;;19.60;98.40;;;;;;5027274;28;20049;-68
2022/09/04 08:46:30;;;;;;;7.68;4.00;;;19.80;98.10;;;;;;5026659;28;20475;-69
2022/09/04 08:49:15;;;;;;;5.25;4.20;;;19.80;97.80;;;;;;5026102;28;20049;-68
2022/09/04 08:52:05;;;;;;;5.78;4.15;;;19.90;97.70;;;;;;5034323;28;20050;-69
2022/09/04 08:54:43;;;;;;;5.53;4.05;;;19.90;97.40;;;;;;5016234;28;20044;-71
2022/09/04 08:57:25;;;;;;;10.43;5.32;;;20.00;97.60;;;;;;5033866;28;20079;-69
2022/09/04 09:00:01;;;;;;;5.38;4.32;;;20.10;97.90;;;;;;5033892;28;20088;-68
2022/09/04 09:02:36;;;;;;;7.35;4.25;;;20.10;97.50;;;;;;5034171;28;20531;-68
2022/09/04 09:05:27;;;;;;;9.82;4.50;;;20.20;97.30;;;;;;5033703;28;20048;-68
2022/09/04 09:07:58;;;;;;;7.95;4.00;;;20.30;97.70;;;;;;5033828;28;20136;-66
2022/09/04 09:11:01;;;;;;;5.90;5.07;;;20.40;97.40;;;;;;5033885;28;20061;-66
2022/09/04 09:13:49;;;;;;;7.82;4.57;;;20.50;97.10;;;;;;4998262;28;20081;-68
2022/09/04 09:16:25;;;;;;;8.18;4.00;;;20.50;97.30;;;;;;5037500;28;20045;-68
2022/09/04 09:19:09;;;;;;;7.75;4.88;;;20.60;97.40;;;;;;5028749;28;20049;-68
2022/09/04 09:22:06;;;;;;;7.57;5.18;;;20.70;97.30;;;;;;5036865;28;20051;-69
2022/09/04 09:24:53;;;;;;;4.95;4.18;;;20.70;97.20;;;;;;5047839;28;20049;-70
2022/09/04 09:27:42;;;;;;;6.57;4.43;;;20.80;97.00;;;;;;5040264;28;20041;-68
2022/09/04 09:30:16;;;;;;;5.85;4.60;;;20.90;96.90;;;;;;5040031;28;20056;-68
2022/09/04 09:33:11;;;;;;;6.75;4.50;;;20.90;96.80;;;;;;5039577;28;20368;-68
2022/09/04 09:36:11;;;;;;;5.70;4.65;;;21.00;96.60;;;;;;5048868;28;20049;-69
2022/09/04 09:39:13;;;;;;;8.30;4.60;;;21.10;96.30;;;;;;5048824;28;20048;-68
2022/09/04 09:42:14;;;;;;;5.93;4.78;;;21.20;96.30;;;;;;5055290;28;20041;-68
2022/09/04 09:45:05;;;;;;;14.32;5.10;;;21.40;95.80;;;;;;5048472;28;20123;-68
2022/09/04 09:48:09;;;;;;;8.38;4.47;;;21.40;95.80;;;;;;5048186;28;20470;-68
2022/09/04 09:51:07;;;;;;;8.88;4.72;;;21.50;95.40;;;;;;5048451;28;20045;-69
2022/09/04 09:54:02;;;;;;;5.57;4.60;;;21.50;95.10;;;;;;5055459;28;20057;-68
2022/09/04 09:57:00;;;;;;;7.43;4.00;;;21.60;94.90;;;;;;5034655;28;20061;-69
2022/09/04 10:00:06;;;;;;;7.07;4.57;;;21.70;95.00;;;;;;5055576;28;20044;-69
2022/09/04 10:03:13;;;;;;;6.53;4.30;;;21.70;94.70;;;;;;5047782;28;20053;-67
2022/09/04 10:06:09;;;;;;;6.25;4.13;;;21.80;94.50;;;;;;5031437;28;20057;-68
2022/09/04 10:09:05;;;;;;;7.55;4.07;;;21.90;94.00;;;;;;5030668;28;20088;-70
2022/09/04 10:12:24;;;;;;;6.05;4.32;;;22.00;94.20;;;;;;5055648;28;20072;-68
2022/09/04 10:15:07;;;;;;;8.65;4.03;;;22.10;94.00;;;;;;5002875;28;20085;-68
2022/09/04 10:18:16;;;;;;;6.60;3.78;;;22.20;94.30;;;;;;5055146;28;20060;-69
2022/09/04 10:21:11;;;;;;;8.45;4.22;;;22.20;93.70;;;;;;5014843;28;20057;-69
2022/09/04 10:23:56;;;;;;;4.45;3.88;;;22.30;93.70;;;;;;5047843;28;20060;-69
2022/09/04 10:26:50;;;;;;;4.55;3.83;;;22.40;93.30;;;;;;5045453;28;20171;-69
2022/09/04 10:29:43;;;;;;;3.60;3.30;;;22.50;93.30;;;;;;5045361;28;20067;-69
2022/09/04 10:32:33;;;;;;;4.65;3.70;;;22.50;93.10;;;;;;5048411;28;20087;-69
2022/09/04 10:35:08;;;;;;;6.45;4.20;;;22.60;93.00;;;;;;5039047;28;20431;-68
2022/09/04 10:38:02;;;;;;;4.40;3.42;;;22.70;92.90;;;;;;5021364;28;20049;-70
2022/09/04 10:40:46;;;;;;;4.82;3.30;;;22.70;92.80;;;;;;5014565;28;20063;-69
2022/09/04 10:43:34;;;;;;;4.72;3.70;;;22.90;92.90;;;;;;5035899;28;20052;-67
2022/09/04 10:45:59;;;;;;;3.78;3.42;;;22.90;92.60;;;;;;5046704;28;20142;-69
2022/09/04 10:48:53;;;;;;;6.00;3.40;;;23.10;92.60;;;;;;5052925;28;20469;-67
2022/09/04 10:51:48;;;;;;;6.00;3.85;;;23.10;92.50;;;;;;5052765;28;20052;-67
2022/09/04 10:54:40;;;;;;;4.53;3.53;;;23.20;92.10;;;;;;5040564;28;20038;-68
2022/09/04 10:57:33;;;;;;;4.43;3.22;;;23.20;92.10;;;;;;5021208;28;20119;-69
2022/09/04 11:00:11;;;;;;;4.97;3.25;;;23.40;92.00;;;;;;5012613;28;20503;-67
2022/09/04 11:03:14;;;;;;;6.35;3.80;;;23.40;91.70;;;;;;5054134;28;20033;-69
2022/09/04 11:06:01;;;;;;;4.80;3.40;;;23.60;91.70;;;;;;5047123;28;20049;-69
2022/09/04 11:08:51;;;;;;;4.80;3.30;;;23.70;91.40;;;;;;5045528;28;20480;-69
2022/09/04 11:11:35;;;;;;;3.47;3.10;;;23.80;91.20;;;;;;5044371;28;20376;-68
2022/09/04 11:14:27;;;;;;;;;;;23.90;91.20;;;;;;5053194;28;20106;-69
2022/09/04 11:17:03;;;;;;;6.80;3.20;;;24.00;90.80;;;;;;5008407;28;19974;-69
2022/09/04 11:19:50;;;;;;;3.55;3.08;;;24.00;90.80;;;;;;5052263;28;20052;-69
2022/09/04 11:22:53;;;;;;;11.35;3.38;;;24.20;90.80;;;;;;5052398;28;20127;-69
2022/09/04 11:25:46;;;;;;;7.55;3.50;;;24.30;90.40;;;;;;5026822;28;20487;-69
2022/09/04 11:28:32;;;;;;;5.03;3.25;;;24.50;89.80;;;;;;5032921;28;20048;-68
2022/09/04 11:31:23;;;;;;;4.50;3.20;;;24.50;89.70;;;;;;5025919;28;20432;-68
2022/09/04 11:34:12;;;;;;;4.00;3.35;;;24.70;89.60;;;;;;5012844;28;20057;-70
2022/09/04 11:36:42;;;;;;;4.18;3.50;;;24.70;89.00;;;;;;5027329;28;20053;-70
2022/09/04 11:39:31;;;;;;;7.30;3.25;;;24.80;89.20;;;;;;5017859;28;20061;-69
2022/09/04 11:42:26;;;;;;;3.97;3.08;;;24.70;88.50;;;;;;5017715;28;20080;-69
2022/09/04 11:45:04;;;;;;;;;;;24.80;88.90;;;;;;5018187;28;20045;-69
2022/09/04 11:47:53;;;;;;;3.60;3.30;;;24.90;89.10;;;;;;5016793;28;19921;-68
2022/09/04 11:50:43;;;;;;;6.45;3.30;;;25.00;87.90;;;;;;5024239;28;20053;-68
2022/09/04 11:53:27;;;;;;;4.57;3.35;;;25.10;88.00;;;;;;5015805;28;20077;-69
2022/09/04 11:56:01;;;;;;;5.40;3.30;;;25.20;88.10;;;;;;5032265;28;20414;-70
2022/09/04 11:58:55;;;;;;;3.22;2.90;;;25.10;87.10;;;;;;5031936;28;20033;-68
2022/09/04 12:01:30;;;;;;;4.10;3.17;;;25.30;88.00;;;;;;5031684;28;20438;-69
2022/09/04 12:04:19;;;;;;;3.75;3.33;;;25.30;87.20;;;;;;5033251;28;20049;-69
2022/09/04 12:07:12;;;;;;;4.32;3.15;;;25.30;86.50;;;;;;5023435;28;20341;-68
2022/09/04 12:10:08;;;;;;;4.07;3.10;;;25.50;86.60;;;;;;5027438;28;20437;-69
2022/09/04 12:12:50;;;;;;;6.82;3.65;;;25.50;85.40;;;;;;5027717;28;20505;-70
2022/09/04 12:15:24;;;;;;;4.32;3.42;;;25.50;86.60;;;;;;5017520;28;20361;-68
2022/09/04 12:18:08;;;;;;;5.22;3.28;;;25.60;86.40;;;;;;5017193;28;20122;-69
2022/09/04 12:21:01;;;;;;;3.63;3.15;;;25.60;85.80;;;;;;5015846;28;20167;-69
2022/09/04 12:24:11;;;;;;;4.15;3.00;;;25.80;85.80;;;;;;5034075;28;20045;-70
2022/09/04 12:26:52;;;;;;;3.83;3.35;;;25.80;85.80;;;;;;5045599;28;20048;-70
2022/09/04 12:29:54;;;;;;;7.53;3.22;;;25.90;85.00;;;;;;5043378;28;20099;-70
2022/09/04 12:32:42;;;;;;;5.13;3.20;;;25.90;85.20;;;;;;5035578;28;20436;-70
2022/09/04 12:35:41;;;;;;;6.00;3.13;;;26.10;85.30;;;;;;5046395;28;20037;-69
2022/09/04 12:38:46;;;;;;;5.15;3.28;;;26.10;84.40;;;;;;4998789;28;20148;-68
2022/09/04 12:41:20;;;;;;;5.20;3.17;;;26.30;84.70;;;;;;5046462;28;20080;-69
2022/09/04 12:44:07;;;;;;;3.85;3.22;;;26.30;84.20;;;;;;5037072;28;20368;-68
2022/09/04 12:47:05;;;;;;;5.22;3.00;;;26.30;83.60;;;;;;5036460;28;20466;-70
2022/09/04 12:49:52;;;;;;;3.15;2.83;;;26.40;82.90;;;;;;5019861;28;20107;-69
2022/09/04 12:52:59;;;;;;;4.32;3.10;;;26.50;83.30;;;;;;5055163;28;20053;-70
2022/09/04 12:55:44;;;;;;;3.35;2.90;;;26.60;83.40;;;;;;5034711;28;20282;-69
2022/09/04 12:58:32;;;;;;;3.10;2.90;;;26.70;82.80;;;;;;5056293;28;20052;-70
2022/09/04 13:01:13;;;;;;;5.15;3.20;;;26.90;82.90;;;;;;5048258;28;20045;-70
2022/09/04 13:04:18;;;;;;;4.78;3.05;;;26.80;82.40;;;;;;5049933;28;20040;-70
2022/09/04 13:07:29;;;;;;;3.20;2.88;;;27.00;82.80;;;;;;5039599;28;20053;-70
2022/09/04 13:10:02;;;;;;;3.55;2.80;;;27.20;81.40;;;;;;5047525;28;20124;-70
2022/09/04 13:12:39;;;;;;;5.32;3.05;;;27.30;82.00;;;;;;5054788;28;20037;-70
2022/09/04 13:15:32;;;;;;;3.83;3.40;;;27.50;82.30;;;;;;5054962;28;20045;-70
2022/09/04 13:18:35;;;;;;;3.53;2.88;;;27.70;80.80;;;;;;5045786;28;20355;-69
2022/09/04 13:21:33;;;;;;;3.42;3.13;;;27.90;80.60;;;;;;5044223;28;20048;-68
2022/09/04 13:24:34;;;;;;;3.13;2.60;;;28.20;80.40;;;;;;5029888;28;20057;-69
2022/09/04 13:27:33;;;;;;;4.25;3.03;;;28.60;79.80;;;;;;5037424;28;20053;-69
2022/09/04 13:30:04;;;;;;;6.05;2.75;;;29.20;78.80;;;;;;5021589;28;20093;-70
2022/09/04 13:33:10;;;;;;;5.28;2.75;;;29.50;78.50;;;;;;5037727;28;20368;-69
2022/09/04 13:36:06;;;;;;;3.15;2.85;;;30.20;77.00;;;;;;5030210;28;20061;-69
2022/09/04 13:38:57;;;;;;;2.67;2.42;;;30.70;76.40;;;;;;5029490;28;20037;-70
2022/09/04 13:41:56;;;;;;;4.15;3.00;;;31.10;75.80;;;;;;5028356;28;20187;-70
2022/09/04 13:45:02;;;;;;;3.60;2.78;;;31.40;73.80;;;;;;5028189;28;20116;-69
2022/09/04 13:47:58;;;;;;;4.95;2.83;;;32.10;73.40;;;;;;5028734;28;20044;-69
2022/09/04 13:50:44;;;;;;;3.42;3.00;;;32.40;70.60;;;;;;5028430;28;20115;-70
2022/09/04 13:53:42;;;;;;;4.80;2.60;;;32.30;71.00;;;;;;5035405;28;20077;-71
2022/09/04 13:56:15;;;;;;;5.00;2.97;;;32.70;70.60;;;;;;5037014;28;20044;-71
2022/09/04 13:58:50;;;;;;;4.47;2.85;;;32.80;70.20;;;;;;5036881;28;20048;-69
2022/09/04 14:01:20;;;;;;;3.22;2.92;;;32.80;69.30;;;;;;5033808;28;20133;-70
2022/09/04 14:04:00;;;;;;;3.17;2.80;;;32.90;69.60;;;;;;5037074;28;20042;-70
2022/09/04 14:06:30;;;;;;;4.68;2.97;;;33.10;69.00;;;;;;5036517;28;20189;-70
2022/09/04 14:08:59;;;;;;;3.55;2.83;;;32.90;68.20;;;;;;5036690;28;20053;-70
2022/09/04 14:11:56;;;;;;;3.42;3.13;;;33.40;68.60;;;;;;5036583;28;20037;-71
2022/09/04 14:15:08;;;;;;;3.10;2.78;;;33.50;66.60;;;;;;5027334;28;20045;-70
2022/09/04 14:17:54;;;;;;;3.05;2.60;;;33.80;67.70;;;;;;5028797;28;20049;-70
2022/09/04 14:20:32;;;;;;;4.18;2.80;;;34.20;67.20;;;;;;5026932;28;20046;-72
2022/09/04 14:23:07;;;;;;;3.25;2.95;;;34.40;67.10;;;;;;5035984;28;20056;-71
2022/09/04 14:25:49;;;;;;;4.25;2.75;;;34.80;65.60;;;;;;5036178;28;20049;-68
2022/09/04 14:28:43;;;;;;;6.65;3.03;;;34.90;65.40;;;;;;5036591;28;20053;-70
2022/09/04 14:31:43;;;;;;;4.95;3.10;;;35.60;64.60;;;;;;5028988;28;20455;-69